Time;durP1;ratioP1;P1;durP2;ratioP2;P2;SDS_P1;SDS_P2;PMS_P1;PMS_P2;Temp;Humidity;BMP_temperature;BMP_pressure;BME280_temperature;BME280_humidity;BME280_pressure;Samples;Min_cycle;Max_cycle;Signal;HPM_P1;HPM_P2
2021/07/24 00:01:07;;;;;;;10.73;9.60;;;23.80;99.90;;;;;;5013778;28;20519;-81
2021/07/24 00:03:35;;;;;;;10.37;9.37;;;23.80;99.90;;;;;;5028767;28;20484;-81
2021/07/24 00:06:04;;;;;;;11.00;9.93;;;23.70;99.90;;;;;;5030685;28;20456;-82
2021/07/24 00:08:32;;;;;;;14.07;10.83;;;23.70;99.90;;;;;;5009446;28;20487;-79
2021/07/24 00:11:03;;;;;;;11.73;9.87;;;23.70;99.90;;;;;;5024395;28;20953;-81
2021/07/24 00:13:33;;;;;;;12.40;10.70;;;23.60;99.90;;;;;;5024176;28;20446;-79
2021/07/24 00:16:01;;;;;;;11.87;10.67;;;23.60;99.90;;;;;;5023862;28;20510;-81
2021/07/24 00:18:31;;;;;;;10.60;9.53;;;23.60;99.90;;;;;;5028727;28;20514;-81
2021/07/24 00:20:59;;;;;;;14.40;10.27;;;23.60;99.90;;;;;;5031650;28;20499;-81
2021/07/24 00:23:28;;;;;;;10.40;9.30;;;23.60;99.90;;;;;;5002441;28;20472;-79
2021/07/24 00:25:56;;;;;;;11.47;10.30;;;23.60;99.90;;;;;;5012943;28;20472;-81
2021/07/24 00:28:24;;;;;;;12.47;9.73;;;23.50;99.90;;;;;;5032837;28;20510;-80
2021/07/24 00:30:52;;;;;;;13.90;11.23;;;23.50;99.90;;;;;;5032891;28;20456;-81
2021/07/24 00:33:20;;;;;;;12.77;10.03;;;23.50;99.90;;;;;;5013990;28;20550;-83
2021/07/24 00:35:50;;;;;;;11.67;9.57;;;23.50;99.90;;;;;;5032129;28;20459;-81
2021/07/24 00:38:18;;;;;;;10.57;9.47;;;23.50;99.90;;;;;;5034920;28;20445;-81
2021/07/24 00:40:52;;;;;;;10.87;9.47;;;23.40;99.90;;;;;;5016430;28;20453;-81
2021/07/24 00:43:22;;;;;;;11.43;9.67;;;23.40;99.90;;;;;;5034031;28;20473;-82
2021/07/24 00:45:54;;;;;;;10.67;8.47;;;23.40;99.90;;;;;;5009517;28;20485;-82
2021/07/24 00:48:23;;;;;;;12.20;9.67;;;23.40;99.90;;;;;;5030875;28;20457;-81
2021/07/24 00:50:55;;;;;;;9.93;8.90;;;23.30;99.90;;;;;;5031764;28;20455;-80
2021/07/24 00:53:24;;;;;;;9.67;8.67;;;23.40;99.90;;;;;;5032481;28;20494;-80
2021/07/24 00:55:53;;;;;;;13.03;9.07;;;23.30;99.90;;;;;;4995697;28;20481;-82
2021/07/24 00:58:25;;;;;;;12.30;9.30;;;23.30;99.90;;;;;;5030186;28;20452;-81
2021/07/24 01:00:54;;;;;;;11.03;9.30;;;23.30;99.90;;;;;;5025872;28;20519;-80
2021/07/24 01:03:22;;;;;;;10.50;9.50;;;23.30;99.90;;;;;;5027558;28;20472;-81
2021/07/24 01:05:53;;;;;;;12.93;9.80;;;23.40;99.90;;;;;;5018738;28;20459;-80
2021/07/24 01:08:22;;;;;;;10.50;9.57;;;23.30;99.90;;;;;;5015172;28;21037;-79
2021/07/24 01:10:51;;;;;;;10.47;8.67;;;23.30;99.90;;;;;;5019514;28;20449;-80
2021/07/24 01:13:21;;;;;;;13.07;9.47;;;23.30;99.90;;;;;;5031803;28;20461;-80
2021/07/24 01:15:50;;;;;;;9.33;8.40;;;23.30;99.90;;;;;;5025585;28;21023;-80
2021/07/24 01:18:20;;;;;;;12.53;9.40;;;23.20;99.90;;;;;;5029825;28;20447;-82
2021/07/24 01:20:49;;;;;;;10.57;8.97;;;23.10;99.90;;;;;;5030098;28;20510;-81
2021/07/24 01:23:19;;;;;;;10.33;8.37;;;23.10;99.90;;;;;;5024286;28;20814;-81
2021/07/24 01:25:49;;;;;;;11.50;9.07;;;23.10;99.90;;;;;;5027801;28;20468;-77
2021/07/24 01:28:25;;;;;;;12.53;9.83;;;23.10;99.90;;;;;;5032610;28;20455;-83
2021/07/24 01:30:53;;;;;;;10.77;8.70;;;23.10;99.90;;;;;;5015633;28;20497;-81
2021/07/24 01:33:22;;;;;;;11.47;9.23;;;23.10;99.90;;;;;;5022935;28;20486;-83
2021/07/24 01:35:52;;;;;;;11.30;9.17;;;23.10;99.90;;;;;;5038451;28;20517;-83
2021/07/24 01:38:22;;;;;;;10.63;9.23;;;23.10;99.90;;;;;;5036057;28;20452;-81
2021/07/24 01:40:50;;;;;;;13.97;10.37;;;23.10;99.90;;;;;;5030294;28;20870;-80
2021/07/24 01:43:18;;;;;;;11.03;9.47;;;23.10;99.90;;;;;;5006770;28;20902;-80
2021/07/24 01:45:46;;;;;;;10.90;8.63;;;23.00;99.90;;;;;;5029362;28;20488;-80
2021/07/24 01:48:16;;;;;;;10.87;9.03;;;23.00;99.90;;;;;;5030442;28;20496;-80
2021/07/24 01:53:34;;;;;;;11.20;9.13;;;23.00;99.90;;;;;;5022945;28;20455;-81
2021/07/24 01:56:04;;;;;;;9.13;8.23;;;23.00;99.90;;;;;;5022940;28;20467;-81
2021/07/24 01:58:36;;;;;;;12.07;9.40;;;22.90;99.90;;;;;;5016260;28;20449;-81
2021/07/24 02:01:06;;;;;;;9.43;8.20;;;22.90;99.90;;;;;;5019819;28;20455;-85
2021/07/24 02:03:38;;;;;;;9.37;8.47;;;22.90;99.90;;;;;;5019488;28;20471;-80
2021/07/24 02:06:07;;;;;;;10.53;8.90;;;22.90;99.90;;;;;;5031245;28;20503;-80
2021/07/24 02:08:36;;;;;;;10.47;9.33;;;22.90;99.90;;;;;;5033141;28;20444;-80
2021/07/24 02:11:06;;;;;;;10.13;9.23;;;22.90;99.90;;;;;;5030808;28;20455;-80
2021/07/24 02:13:34;;;;;;;10.67;9.57;;;22.80;99.90;;;;;;5023014;28;20472;-78
2021/07/24 02:16:04;;;;;;;11.00;9.60;;;22.90;99.90;;;;;;5030521;28;20457;-79
2021/07/24 02:18:33;;;;;;;11.80;8.83;;;22.80;99.90;;;;;;5027857;28;20603;-79
2021/07/24 02:21:02;;;;;;;10.50;9.40;;;22.80;99.90;;;;;;5030202;28;20586;-79
2021/07/24 02:23:30;;;;;;;9.03;8.07;;;22.80;99.90;;;;;;5012746;28;20879;-79
2021/07/24 02:25:59;;;;;;;9.97;8.97;;;22.80;99.90;;;;;;5013927;28;20531;-80
2021/07/24 02:28:27;;;;;;;14.80;11.07;;;22.80;99.90;;;;;;5020838;28;20484;-80
2021/07/24 02:30:55;;;;;;;10.90;9.20;;;22.80;99.90;;;;;;5030900;28;20471;-81
2021/07/24 02:33:23;;;;;;;9.70;8.70;;;22.80;99.90;;;;;;5030042;28;20491;-81
2021/07/24 02:35:51;;;;;;;10.73;9.63;;;22.90;99.90;;;;;;5034810;28;20506;-79
2021/07/24 02:38:19;;;;;;;9.80;8.80;;;22.80;99.90;;;;;;5035289;28;20463;-80
2021/07/24 02:40:47;;;;;;;11.03;9.60;;;22.70;99.90;;;;;;5035008;28;20834;-80
2021/07/24 02:43:17;;;;;;;11.50;9.20;;;22.70;99.90;;;;;;5033486;28;21010;-81
2021/07/24 02:45:45;;;;;;;9.50;8.50;;;22.60;99.90;;;;;;5015984;28;20496;-80
2021/07/24 02:48:13;;;;;;;12.73;9.37;;;22.60;99.90;;;;;;5031997;28;20491;-82
2021/07/24 02:50:41;;;;;;;10.53;9.30;;;22.60;99.90;;;;;;5034819;28;20495;-82
2021/07/24 02:53:09;;;;;;;9.50;8.47;;;22.70;99.90;;;;;;5033790;28;21299;-82
2021/07/24 02:55:38;;;;;;;12.23;9.50;;;22.80;99.90;;;;;;5013492;28;20513;-81
2021/07/24 02:58:06;;;;;;;11.33;9.07;;;22.80;99.90;;;;;;5011959;28;20467;-82
2021/07/24 03:00:35;;;;;;;11.37;9.80;;;22.90;99.90;;;;;;5030113;28;20478;-82
2021/07/24 03:03:04;;;;;;;12.00;8.77;;;22.90;99.90;;;;;;5036914;28;20925;-80
2021/07/24 03:05:32;;;;;;;10.83;8.63;;;23.00;99.90;;;;;;5035842;28;20475;-80
2021/07/24 03:08:00;;;;;;;9.70;8.70;;;23.00;99.90;;;;;;5037021;28;20444;-80
2021/07/24 03:10:28;;;;;;;10.17;8.37;;;23.00;99.90;;;;;;5036258;28;20516;-80
2021/07/24 03:12:56;;;;;;;10.37;9.27;;;23.00;99.90;;;;;;5035542;28;20491;-81
2021/07/24 03:15:24;;;;;;;11.50;9.20;;;23.00;99.90;;;;;;5032535;28;21811;-80
2021/07/24 03:17:54;;;;;;;10.80;8.17;;;23.00;99.90;;;;;;5034391;28;20456;-80
2021/07/24 03:20:22;;;;;;;11.10;8.87;;;22.90;99.90;;;;;;5013207;28;20495;-80
2021/07/24 03:22:50;;;;;;;9.23;8.30;;;22.90;99.90;;;;;;5035883;28;20534;-81
2021/07/24 03:25:20;;;;;;;9.90;8.90;;;22.90;99.90;;;;;;5036143;28;20499;-83
2021/07/24 03:27:48;;;;;;;11.33;8.43;;;22.90;99.90;;;;;;5020586;28;20893;-79
2021/07/24 03:30:16;;;;;;;9.70;8.30;;;22.90;99.90;;;;;;5030487;28;20460;-80
2021/07/24 03:32:44;;;;;;;8.83;7.80;;;22.90;99.90;;;;;;5031202;28;20488;-79
2021/07/24 03:35:14;;;;;;;9.93;8.10;;;22.80;99.90;;;;;;5026369;28;20982;-80
2021/07/24 03:37:42;;;;;;;9.90;8.90;;;22.80;99.90;;;;;;5033855;28;20487;-79
2021/07/24 03:40:11;;;;;;;9.90;8.90;;;22.80;99.90;;;;;;5034434;28;20456;-80
2021/07/24 03:42:39;;;;;;;10.50;9.00;;;22.70;99.90;;;;;;5034316;28;20808;-80
2021/07/24 03:45:08;;;;;;;9.80;8.77;;;22.60;99.90;;;;;;5033518;28;20522;-81
2021/07/24 03:47:36;;;;;;;11.23;8.93;;;22.70;99.90;;;;;;5033417;28;20453;-80
2021/07/24 03:50:05;;;;;;;9.37;8.33;;;22.70;99.90;;;;;;5032717;28;20491;-79
2021/07/24 03:52:35;;;;;;;13.10;9.20;;;22.80;99.90;;;;;;5031370;28;20913;-79
2021/07/24 03:55:04;;;;;;;8.83;7.93;;;22.80;99.90;;;;;;5015920;28;20982;-79
2021/07/24 03:57:32;;;;;;;9.33;8.43;;;22.70;99.90;;;;;;5019683;28;20461;-80
2021/07/24 04:00:02;;;;;;;11.23;8.50;;;22.80;99.90;;;;;;5022458;28;21029;-77
2021/07/24 04:02:32;;;;;;;9.67;8.40;;;22.80;99.90;;;;;;5024172;28;21068;-77
2021/07/24 04:05:02;;;;;;;10.57;9.50;;;22.80;99.90;;;;;;5022041;28;20619;-77
2021/07/24 04:07:30;;;;;;;10.43;7.90;;;22.80;99.90;;;;;;5028964;28;20501;-77
2021/07/24 04:09:59;;;;;;;10.13;7.93;;;22.80;99.90;;;;;;5027584;28;20463;-80
2021/07/24 04:12:28;;;;;;;11.47;9.07;;;22.80;99.90;;;;;;5013798;28;20502;-69
2021/07/24 04:14:56;;;;;;;10.70;9.60;;;22.70;99.90;;;;;;5020731;28;20460;-71
2021/07/24 04:17:24;;;;;;;10.87;9.40;;;22.60;99.90;;;;;;5006759;28;20514;-70
2021/07/24 04:19:54;;;;;;;10.77;9.50;;;22.50;99.90;;;;;;5025031;28;20470;-69
2021/07/24 04:22:22;;;;;;;13.83;9.27;;;22.40;99.90;;;;;;5027130;28;20467;-70
2021/07/24 04:24:50;;;;;;;12.63;9.40;;;22.30;99.90;;;;;;5027416;28;20547;-70
2021/07/24 04:27:20;;;;;;;11.43;8.90;;;22.30;99.90;;;;;;5024486;28;20495;-70
2021/07/24 04:29:49;;;;;;;11.70;8.83;;;22.30;99.90;;;;;;5029176;28;20452;-69
2021/07/24 04:32:17;;;;;;;9.60;8.60;;;22.30;99.90;;;;;;5031006;28;20468;-79
2021/07/24 04:34:46;;;;;;;9.93;8.90;;;22.30;99.90;;;;;;5037962;28;20465;-84
2021/07/24 04:37:14;;;;;;;9.80;8.80;;;22.40;99.90;;;;;;5031049;28;20436;-80
2021/07/24 04:39:42;;;;;;;9.80;8.80;;;22.50;99.90;;;;;;5006038;28;20492;-82
2021/07/24 04:42:10;;;;;;;11.07;8.87;;;22.50;99.90;;;;;;5031925;28;20476;-83
2021/07/24 04:44:40;;;;;;;10.43;9.10;;;22.50;99.90;;;;;;5030223;28;20939;-82
2021/07/24 04:47:08;;;;;;;11.83;8.80;;;22.50;99.90;;;;;;5030254;28;20476;-83
2021/07/24 04:49:42;;;;;;;9.20;8.30;;;22.50;99.90;;;;;;5023183;28;20456;-83
2021/07/24 04:52:10;;;;;;;9.33;8.40;;;22.50;99.90;;;;;;5031221;28;20489;-84
2021/07/24 04:54:38;;;;;;;11.83;9.73;;;22.50;99.90;;;;;;5031862;28;20451;-83
2021/07/24 04:57:07;;;;;;;12.03;9.50;;;22.50;99.90;;;;;;5029605;28;21013;-82
2021/07/24 04:59:36;;;;;;;9.13;8.23;;;22.60;99.90;;;;;;5032359;28;20516;-83
2021/07/24 05:02:06;;;;;;;12.83;10.23;;;22.60;99.90;;;;;;5032272;28;20479;-82
2021/07/24 05:04:35;;;;;;;10.70;9.47;;;22.60;99.90;;;;;;5014440;28;20960;-84
2021/07/24 05:07:03;;;;;;;11.20;10.00;;;22.60;99.90;;;;;;5031274;28;20496;-83
2021/07/24 05:09:31;;;;;;;8.93;7.50;;;22.60;99.90;;;;;;5030855;28;20546;-83
2021/07/24 05:11:59;;;;;;;9.50;8.50;;;22.60;99.90;;;;;;5031558;28;20542;-83
2021/07/24 05:14:27;;;;;;;9.93;8.93;;;22.50;99.90;;;;;;5032131;28;20456;-84
2021/07/24 05:17:06;;;;;;;10.87;8.33;;;22.60;99.90;;;;;;5030981;28;20440;-84
2021/07/24 05:19:36;;;;;;;9.93;8.97;;;22.70;99.90;;;;;;5029333;28;20516;-84
2021/07/24 05:22:08;;;;;;;9.07;8.20;;;22.70;99.90;;;;;;5014121;28;20479;-82
2021/07/24 05:24:36;;;;;;;10.70;9.17;;;22.70;99.90;;;;;;5032084;28;20449;-83
2021/07/24 05:27:05;;;;;;;12.33;7.80;;;22.90;99.90;;;;;;5030882;28;20487;-83
2021/07/24 05:29:34;;;;;;;11.07;8.20;;;22.90;99.90;;;;;;5014502;28;20533;-83
2021/07/24 05:32:02;;;;;;;9.67;8.63;;;22.90;99.90;;;;;;5031438;28;20483;-83
2021/07/24 05:34:31;;;;;;;10.20;9.10;;;22.90;99.90;;;;;;5031558;28;20543;-83
2021/07/24 05:36:59;;;;;;;11.03;8.60;;;22.90;99.90;;;;;;5013151;28;20857;-83
2021/07/24 05:39:27;;;;;;;10.90;8.50;;;22.90;99.90;;;;;;5031565;28;20441;-84
2021/07/24 05:41:55;;;;;;;11.27;8.97;;;22.90;99.90;;;;;;5031520;28;20475;-83
2021/07/24 05:44:23;;;;;;;10.03;8.40;;;23.10;99.90;;;;;;5031190;28;20445;-83
2021/07/24 05:46:52;;;;;;;12.43;9.70;;;23.10;99.90;;;;;;5029078;28;20519;-82
2021/07/24 05:49:20;;;;;;;13.60;10.40;;;23.10;99.90;;;;;;5031309;28;20462;-83
2021/07/24 05:51:49;;;;;;;11.63;9.10;;;23.00;99.90;;;;;;5013702;28;20468;-84
2021/07/24 05:54:18;;;;;;;10.37;9.23;;;23.00;99.90;;;;;;5031065;28;20440;-82
2021/07/24 05:56:46;;;;;;;9.70;8.60;;;23.10;99.90;;;;;;5028104;28;20437;-83
2021/07/24 05:59:14;;;;;;;14.60;9.00;;;23.10;99.90;;;;;;4994897;28;20492;-84
2021/07/24 06:01:42;;;;;;;10.00;7.83;;;23.10;99.90;;;;;;5026926;28;20471;-83
2021/07/24 06:04:10;;;;;;;12.80;8.60;;;23.10;99.90;;;;;;5031127;28;20437;-83
2021/07/24 06:06:38;;;;;;;11.37;9.30;;;23.30;99.90;;;;;;5034145;28;20472;-83
2021/07/24 06:09:08;;;;;;;10.27;9.07;;;23.30;99.90;;;;;;5025911;28;20455;-84
2021/07/24 06:11:36;;;;;;;13.20;9.50;;;23.30;99.90;;;;;;5035081;28;20468;-83
2021/07/24 06:14:21;;;;;;;11.80;8.70;;;23.30;99.90;;;;;;5013932;28;20460;-83
2021/07/24 06:16:49;;;;;;;10.10;9.10;;;23.30;99.90;;;;;;5031895;28;20463;-84
2021/07/24 06:19:17;;;;;;;10.40;9.23;;;23.30;99.90;;;;;;5035309;28;20502;-84
2021/07/24 06:21:46;;;;;;;12.40;8.60;;;23.30;99.90;;;;;;5034521;28;20490;-84
2021/07/24 06:24:16;;;;;;;10.67;9.50;;;23.20;99.90;;;;;;5035524;28;20562;-82
2021/07/24 06:26:45;;;;;;;10.00;7.83;;;23.20;99.90;;;;;;5033821;28;20886;-83
2021/07/24 06:29:13;;;;;;;11.13;8.30;;;23.20;99.90;;;;;;5015545;28;20448;-83
2021/07/24 06:31:41;;;;;;;10.10;8.50;;;23.30;99.90;;;;;;5027805;28;20469;-83
2021/07/24 06:34:10;;;;;;;10.43;9.33;;;23.30;99.90;;;;;;5035055;28;20487;-82
2021/07/24 06:36:39;;;;;;;9.47;8.27;;;23.30;99.90;;;;;;5034052;28;20506;-84
2021/07/24 06:39:07;;;;;;;11.07;8.23;;;23.30;99.90;;;;;;5033391;28;20554;-83
2021/07/24 06:41:39;;;;;;;10.40;8.00;;;23.30;99.90;;;;;;5035098;28;20525;-84
2021/07/24 06:44:07;;;;;;;9.30;8.40;;;23.40;99.90;;;;;;5034400;28;20464;-83
2021/07/24 06:46:36;;;;;;;9.30;7.80;;;23.40;99.90;;;;;;5016138;28;20483;-84
2021/07/24 06:49:04;;;;;;;15.40;9.27;;;23.40;99.90;;;;;;5033016;28;20452;-84
2021/07/24 06:51:32;;;;;;;10.50;9.40;;;23.30;99.90;;;;;;5033954;28;21208;-84
2021/07/24 06:54:00;;;;;;;8.37;7.30;;;23.30;99.90;;;;;;5034698;28;21100;-84
2021/07/24 06:56:28;;;;;;;9.47;8.13;;;23.40;99.90;;;;;;5033964;28;20455;-83
2021/07/24 06:58:58;;;;;;;9.87;7.70;;;23.40;99.90;;;;;;5034326;28;20448;-84
2021/07/24 07:01:26;;;;;;;10.27;7.90;;;23.50;99.90;;;;;;5034125;28;20830;-83
2021/07/24 07:03:54;;;;;;;10.10;8.70;;;23.50;99.90;;;;;;5034326;28;20452;-82
2021/07/24 07:06:22;;;;;;;10.37;8.23;;;23.60;99.90;;;;;;5033240;28;20429;-83
2021/07/24 07:08:51;;;;;;;9.57;8.30;;;23.60;99.90;;;;;;5034438;28;20835;-82
2021/07/24 07:11:20;;;;;;;11.43;7.70;;;23.60;99.90;;;;;;5016603;28;20460;-84
2021/07/24 07:13:48;;;;;;;12.70;9.53;;;23.50;99.90;;;;;;5033871;28;20460;-84
2021/07/24 07:16:17;;;;;;;11.83;10.07;;;23.30;99.90;;;;;;5032760;28;20952;-84
2021/07/24 07:18:46;;;;;;;12.33;8.90;;;23.20;99.90;;;;;;5000362;28;20465;-83
2021/07/24 07:21:14;;;;;;;12.87;9.43;;;23.30;99.90;;;;;;5015799;28;20449;-83
2021/07/24 07:23:42;;;;;;;12.00;9.80;;;23.30;99.90;;;;;;5033935;28;20448;-83
2021/07/24 07:26:11;;;;;;;9.97;8.60;;;23.30;99.90;;;;;;5033502;28;20448;-84
2021/07/24 07:28:40;;;;;;;11.50;9.50;;;23.10;99.90;;;;;;5015056;28;20480;-84
2021/07/24 07:31:08;;;;;;;9.90;8.90;;;23.00;99.90;;;;;;5014099;28;20459;-84
2021/07/24 07:33:37;;;;;;;11.07;9.73;;;23.00;99.90;;;;;;5033385;28;20468;-83
2021/07/24 07:36:06;;;;;;;9.73;7.57;;;23.00;99.90;;;;;;5015327;28;20456;-83
2021/07/24 07:38:34;;;;;;;9.87;7.77;;;23.10;99.90;;;;;;5016297;28;20448;-83
2021/07/24 07:41:02;;;;;;;8.97;8.03;;;23.00;99.90;;;;;;5034050;28;20452;-83
2021/07/24 07:43:30;;;;;;;10.73;9.03;;;22.90;99.90;;;;;;5033005;28;20460;-83
2021/07/24 07:45:58;;;;;;;11.70;9.40;;;22.90;99.90;;;;;;5033035;28;20453;-84
2021/07/24 07:48:26;;;;;;;11.17;9.50;;;22.80;99.90;;;;;;5033192;28;20476;-82
2021/07/24 07:50:57;;;;;;;12.17;8.53;;;22.70;99.90;;;;;;5033601;28;20456;-84
2021/07/24 07:53:25;;;;;;;15.30;8.50;;;22.70;99.90;;;;;;5033272;28;20475;-84
2021/07/24 07:55:53;;;;;;;10.57;8.50;;;22.70;99.90;;;;;;5030366;28;20490;-83
2021/07/24 07:58:23;;;;;;;9.83;8.83;;;22.80;99.90;;;;;;5032249;28;20510;-82
2021/07/24 08:00:51;;;;;;;9.87;8.83;;;22.90;99.90;;;;;;5031430;28;21248;-83
2021/07/24 08:03:24;;;;;;;9.83;8.83;;;23.00;99.90;;;;;;5033163;28;20559;-84
2021/07/24 08:05:52;;;;;;;9.30;7.77;;;23.20;99.90;;;;;;5014763;28;20453;-82
2021/07/24 08:08:22;;;;;;;10.63;9.27;;;23.30;99.90;;;;;;5033239;28;20591;-83
2021/07/24 08:10:50;;;;;;;10.90;8.90;;;23.40;99.90;;;;;;5033091;28;20494;-83
2021/07/24 08:13:19;;;;;;;8.43;7.57;;;23.30;99.90;;;;;;5032738;28;20487;-83
2021/07/24 08:15:48;;;;;;;9.87;8.87;;;23.30;1.00;;;;;;5032403;28;20448;-83
2021/07/24 08:18:16;;;;;;;13.73;9.50;;;23.40;1.00;;;;;;5032678;28;20453;-84
2021/07/24 08:20:45;;;;;;;10.37;7.87;;;23.40;1.00;;;;;;5032750;28;21009;-84
2021/07/24 08:23:14;;;;;;;10.70;8.40;;;23.40;1.00;;;;;;5033067;28;20530;-83
2021/07/24 08:25:44;;;;;;;11.97;8.97;;;23.50;1.00;;;;;;5031437;28;20873;-83
2021/07/24 08:28:12;;;;;;;11.40;8.10;;;23.60;1.00;;;;;;5014276;28;20524;-82
2021/07/24 08:30:41;;;;;;;12.57;9.30;;;23.60;1.00;;;;;;5032674;28;20883;-82
2021/07/24 08:33:09;;;;;;;14.40;9.30;;;23.60;1.00;;;;;;5032927;28;20888;-84
2021/07/24 08:35:40;;;;;;;10.87;8.83;;;23.70;1.00;;;;;;5015801;28;20535;-83
2021/07/24 08:38:08;;;;;;;10.03;8.90;;;23.80;1.00;;;;;;5032308;28;20498;-83
2021/07/24 08:40:37;;;;;;;10.13;9.03;;;23.80;1.00;;;;;;5020056;28;21126;-83
2021/07/24 08:43:09;;;;;;;9.10;7.90;;;23.90;1.00;;;;;;5032401;28;20487;-82
2021/07/24 08:45:37;;;;;;;13.20;7.70;;;23.90;99.90;;;;;;5032104;28;20449;-83
2021/07/24 08:48:06;;;;;;;10.73;8.33;;;24.00;99.90;;;;;;5032786;28;20468;-83
2021/07/24 08:50:34;;;;;;;9.30;8.40;;;24.00;99.90;;;;;;5032732;28;20486;-84
2021/07/24 08:53:06;;;;;;;10.23;9.00;;;23.90;99.90;;;;;;5030743;28;21014;-83
2021/07/24 08:55:37;;;;;;;11.07;8.53;;;23.90;99.90;;;;;;5030343;28;20453;-82
2021/07/24 08:58:09;;;;;;;9.00;8.10;;;24.00;99.90;;;;;;5029986;28;20436;-84
2021/07/24 09:00:38;;;;;;;9.40;8.33;;;24.10;99.90;;;;;;5031068;28;20452;-84
2021/07/24 09:03:08;;;;;;;10.47;8.33;;;24.20;99.90;;;;;;5031627;28;20538;-84
2021/07/24 09:05:39;;;;;;;9.17;8.27;;;24.30;99.90;;;;;;5030943;28;20452;-82
2021/07/24 09:08:11;;;;;;;10.90;8.27;;;24.40;99.90;;;;;;5031957;28;21347;-82
2021/07/24 09:10:39;;;;;;;9.70;8.73;;;24.40;99.90;;;;;;5014651;28;20449;-83
2021/07/24 09:13:09;;;;;;;8.67;7.87;;;24.30;99.90;;;;;;5031358;28;20530;-83
2021/07/24 09:15:37;;;;;;;12.13;9.13;;;24.40;99.90;;;;;;5030842;28;20449;-83
2021/07/24 09:18:05;;;;;;;13.07;9.00;;;24.20;99.90;;;;;;5031068;28;20549;-82
2021/07/24 09:20:34;;;;;;;8.50;7.57;;;24.30;99.90;;;;;;5013997;28;20452;-84
2021/07/24 09:23:24;;;;;;;10.07;8.90;;;24.40;99.90;;;;;;5031843;28;20460;-82
2021/07/24 09:25:52;;;;;;;10.70;8.73;;;24.50;99.90;;;;;;5030663;28;20467;-83
2021/07/24 09:28:25;;;;;;;11.33;8.60;;;24.60;99.90;;;;;;5030824;28;21003;-83
2021/07/24 09:30:54;;;;;;;10.67;9.53;;;24.50;99.90;;;;;;5030981;28;20436;-82
2021/07/24 09:33:22;;;;;;;8.83;7.93;;;24.50;99.90;;;;;;5029344;28;20464;-84
2021/07/24 09:36:01;;;;;;;8.90;7.93;;;24.50;99.90;;;;;;5029225;28;20883;-83
2021/07/24 09:38:30;;;;;;;10.93;8.70;;;24.60;99.90;;;;;;5029947;28;20448;-83
2021/07/24 09:41:00;;;;;;;11.03;8.10;;;24.60;99.90;;;;;;5030138;28;20855;-83
2021/07/24 09:43:32;;;;;;;9.40;8.40;;;24.60;99.90;;;;;;5030839;28;20894;-84
2021/07/24 09:46:12;;;;;;;10.83;7.60;;;24.50;99.90;;;;;;5029830;28;20506;-81
2021/07/24 09:48:41;;;;;;;8.80;7.90;;;24.60;99.90;;;;;;5029979;28;20566;-84
2021/07/24 09:51:09;;;;;;;7.90;7.07;;;24.70;99.90;;;;;;5031157;28;20432;-84
2021/07/24 09:53:39;;;;;;;8.77;7.70;;;24.90;99.90;;;;;;5030872;28;20852;-82
2021/07/24 09:56:11;;;;;;;8.87;7.13;;;25.00;99.90;;;;;;5028107;28;20851;-83
2021/07/24 09:58:40;;;;;;;7.87;7.07;;;25.10;99.90;;;;;;5030959;28;20453;-84
2021/07/24 10:01:10;;;;;;;8.87;6.60;;;25.00;99.90;;;;;;5030738;28;20987;-83
2021/07/24 10:03:41;;;;;;;8.67;6.80;;;25.10;99.90;;;;;;5031399;28;20948;-83
2021/07/24 10:06:13;;;;;;;7.27;6.50;;;25.10;99.90;;;;;;5029862;28;20851;-84
2021/07/24 10:08:43;;;;;;;9.00;5.80;;;25.20;99.90;;;;;;5030985;28;20476;-82
2021/07/24 10:11:11;;;;;;;5.53;4.90;;;25.30;99.90;;;;;;5012909;28;20514;-84
2021/07/24 10:13:44;;;;;;;5.47;4.97;;;25.40;99.90;;;;;;5030176;28;20463;-84
2021/07/24 10:16:12;;;;;;;6.43;5.20;;;25.40;99.90;;;;;;5030699;28;20480;-82
2021/07/24 10:18:42;;;;;;;6.00;4.83;;;25.50;99.90;;;;;;5024518;28;20459;-84
2021/07/24 10:21:10;;;;;;;5.80;4.97;;;25.60;99.90;;;;;;5031117;28;21005;-84
2021/07/24 10:23:38;;;;;;;5.97;4.90;;;25.70;99.90;;;;;;5030470;28;20457;-83
2021/07/24 10:26:11;;;;;;;7.27;4.83;;;25.80;99.90;;;;;;5012744;28;20948;-83
2021/07/24 10:28:53;;;;;;;6.00;5.40;;;25.90;99.90;;;;;;5029500;28;20499;-84
2021/07/24 10:31:27;;;;;;;6.93;5.70;;;25.90;99.90;;;;;;5019330;28;20503;-82
2021/07/24 10:33:59;;;;;;;6.70;5.37;;;25.90;99.90;;;;;;5030484;28;20513;-83
2021/07/24 10:36:36;;;;;;;5.60;5.10;;;25.90;99.90;;;;;;5029948;28;20452;-84
2021/07/24 10:39:05;;;;;;;6.63;5.33;;;25.80;99.90;;;;;;5031295;28;20445;-84
2021/07/24 10:41:44;;;;;;;7.50;5.87;;;25.90;99.90;;;;;;5030967;28;20524;-83
2021/07/24 10:44:16;;;;;;;5.47;4.90;;;25.90;99.90;;;;;;5034911;28;20522;-85
2021/07/24 10:47:11;;;;;;;6.00;4.63;;;25.90;99.90;;;;;;5030824;28;20491;-84
2021/07/24 10:49:59;;;;;;;5.30;4.60;;;25.90;99.90;;;;;;5005932;28;20516;-81
2021/07/24 10:52:48;;;;;;;4.73;4.30;;;25.90;99.90;;;;;;5013401;28;20516;-83
2021/07/24 10:55:16;;;;;;;5.87;4.87;;;26.00;99.90;;;;;;5030307;28;20459;-83
2021/07/24 10:58:06;;;;;;;7.13;4.93;;;25.90;99.90;;;;;;5033902;28;20506;-83
2021/07/24 11:03:34;;;;;;;6.37;5.30;;;26.10;99.90;;;;;;5015227;28;20507;-82
2021/07/24 11:06:30;;;;;;;7.10;5.33;;;26.10;99.90;;;;;;5035606;28;20614;-83
2021/07/24 11:09:10;;;;;;;8.17;5.37;;;26.20;99.90;;;;;;5036446;28;20507;-83
2021/07/24 11:11:46;;;;;;;7.50;5.67;;;26.00;99.90;;;;;;5036069;28;20484;-82
2021/07/24 11:14:57;;;;;;;6.03;5.00;;;26.10;99.90;;;;;;5036052;28;20456;-81
2021/07/24 11:17:28;;;;;;;6.83;5.60;;;26.00;99.90;;;;;;5003389;28;20456;-83
2021/07/24 11:20:34;;;;;;;6.70;5.80;;;25.90;99.90;;;;;;5035417;28;20451;-84
2021/07/24 11:23:05;;;;;;;6.77;5.53;;;25.80;99.90;;;;;;5034886;28;20476;-83
2021/07/24 11:25:38;;;;;;;7.93;5.80;;;25.70;99.90;;;;;;5014694;28;20453;-83
2021/07/24 11:28:08;;;;;;;8.33;6.23;;;25.70;99.90;;;;;;4997526;28;20450;-83
2021/07/24 11:30:37;;;;;;;7.73;6.50;;;25.70;99.90;;;;;;5031093;28;20472;-84
2021/07/24 11:33:12;;;;;;;7.83;6.40;;;25.50;99.90;;;;;;5034199;28;20530;-82
2021/07/24 11:35:41;;;;;;;6.40;5.77;;;25.60;99.90;;;;;;5016269;28;20448;-81
2021/07/24 11:38:23;;;;;;;5.90;5.30;;;25.70;99.90;;;;;;5016760;28;20453;-83
2021/07/24 11:40:59;;;;;;;7.77;6.13;;;25.80;99.90;;;;;;5015974;28;20457;-81
2021/07/24 11:43:27;;;;;;;5.77;5.27;;;25.70;99.90;;;;;;5034434;28;20464;-83
2021/07/24 11:46:04;;;;;;;6.80;5.53;;;25.70;99.90;;;;;;5033615;28;20452;-83
2021/07/24 11:48:35;;;;;;;6.27;5.63;;;25.60;99.90;;;;;;5034566;28;20436;-84
2021/07/24 11:51:06;;;;;;;9.17;6.03;;;25.60;99.90;;;;;;5033968;28;20465;-83
2021/07/24 11:53:35;;;;;;;6.47;5.77;;;25.50;99.90;;;;;;5034274;28;20467;-82
2021/07/24 11:56:09;;;;;;;6.93;5.73;;;25.50;99.90;;;;;;5032209;28;20455;-83
2021/07/24 11:58:38;;;;;;;8.17;5.90;;;25.70;99.90;;;;;;5016741;28;20515;-82
2021/07/24 12:01:21;;;;;;;6.73;6.03;;;25.80;99.90;;;;;;5011458;28;20495;-83
2021/07/24 12:04:05;;;;;;;6.73;6.03;;;25.90;99.90;;;;;;5034399;28;20962;-82
2021/07/24 12:06:35;;;;;;;7.50;5.50;;;25.90;99.90;;;;;;5034019;28;20456;-83
2021/07/24 12:09:03;;;;;;;6.13;5.50;;;25.80;99.90;;;;;;5033937;28;20447;-84
2021/07/24 12:11:32;;;;;;;7.10;6.30;;;26.00;99.90;;;;;;5028498;28;20480;-84
2021/07/24 12:14:05;;;;;;;8.27;6.10;;;26.10;99.90;;;;;;5034229;28;20441;-82
2021/07/24 12:16:38;;;;;;;6.90;6.00;;;26.20;99.90;;;;;;5033797;28;20539;-84
2021/07/24 12:19:16;;;;;;;9.77;6.20;;;26.30;99.90;;;;;;5033775;28;20449;-84
2021/07/24 12:21:45;;;;;;;7.40;5.73;;;26.20;99.90;;;;;;5030009;28;20884;-82
2021/07/24 12:24:24;;;;;;;6.27;5.67;;;26.00;99.90;;;;;;5033846;28;20452;-82
2021/07/24 12:27:07;;;;;;;6.67;5.70;;;26.00;99.90;;;;;;5033444;28;20436;-82
2021/07/24 12:29:48;;;;;;;6.10;5.17;;;26.10;99.90;;;;;;5033660;28;20519;-83
2021/07/24 12:32:16;;;;;;;7.40;6.70;;;26.20;99.90;;;;;;5033580;28;20479;-82
2021/07/24 12:34:47;;;;;;;7.67;6.47;;;26.30;99.90;;;;;;5034601;28;20464;-82
2021/07/24 12:37:29;;;;;;;6.77;6.07;;;26.30;99.90;;;;;;5032233;28;21188;-82
2021/07/24 12:39:58;;;;;;;6.60;5.93;;;26.30;99.90;;;;;;5032831;28;20440;-84
2021/07/24 12:42:31;;;;;;;7.37;5.23;;;26.40;99.90;;;;;;5015248;28;20530;-82
2021/07/24 12:44:59;;;;;;;7.70;5.50;;;26.40;99.90;;;;;;5033324;28;20487;-83
2021/07/24 12:47:35;;;;;;;8.43;6.00;;;26.50;99.90;;;;;;5032007;28;20452;-82
2021/07/24 12:50:15;;;;;;;4.80;4.40;;;26.50;99.90;;;;;;5033205;28;20468;-83
2021/07/24 12:52:45;;;;;;;7.70;5.73;;;26.40;99.90;;;;;;5033426;28;20456;-83
2021/07/24 12:55:17;;;;;;;6.87;5.40;;;26.20;99.90;;;;;;5031068;28;20445;-82
2021/07/24 12:57:46;;;;;;;6.23;5.17;;;26.20;99.90;;;;;;5033808;28;20968;-81
2021/07/24 13:00:16;;;;;;;5.53;4.90;;;26.30;99.90;;;;;;5015550;28;20994;-81
2021/07/24 13:02:44;;;;;;;8.20;5.93;;;26.30;99.90;;;;;;5032935;28;20464;-82